KEZM

Heart of Georgia Regional Airport

Eastman, Georgia, USA
METAR KEZM 200655Z AUTO 12004KT 10SM SCT060 18/14 A3037 RMK AO2 T01820138
Observed Flight Rules
Feb-20 @ 06:55 UTC (28 minutes ago) Visual Flight Rules
Wind Visibility Clouds
120° at 4 knots 10 miles
  • Scattered at 6,000' AGL
Temperatures Readings
Current 18°C / 64°F
Dewpoint 14°C / 57°F
Humidity 78%
Altimeter 30.37" Hg
Pressure 1028 hPa
Elevation 93
METAR KEZM 200655Z AUTO 12004KT 10SM SCT060 18/14 A3037 RMK AO2 T01820138
Observed Flight Rules
Feb-20 @ 06:55 UTC
(28 minutes ago)
VFR
Wind Visibility
120° at 4 knots 10 miles
Clouds
  • Scattered at 6,000' AGL
Temperature Dewpoint
18°C / 64°F 14°C / 57°F
Humidity Altimeter Pressure
78% 30.37" Hg 1028 hPa